Kerman, Iran
Current Conditions -  °F | °C
As of 6:00 PM on Thursday 23 Oct 2014 (Local Time) from OIKK Reporting Station
Clear Clear  
Wind Chill: 63°   Ceiling: Unl
Heat Index: 63°   Visibility: 6mi
Dew Point: 19°   Wind: 7mph
Humidity: 19%   Direction: 350°N
Pressure: 30.24"   Gusts: NA
Location:  30.3°N, 57.08°E
Report Text: OIKK 231500Z 35006KT CAVOK 17/M07 Q1024 A3024
Loading
Personal Weather Stations






























Interactive Weather Map
Tropical Storm Tracking
New forecast layout! Learn more

10-Day Weather Forecast

Advertisements
Track Severe Weather on mobile